N6313 KOWB-KOWB
Flight info
| Callsign | N6313 |
|---|---|
| Flight time | 0h 8m |
| Altitude | 1500 |
| Route | VFR CIRCUITS |
| Aircraft | SR22/L-V/N |
Departure
| Time | 2026-05-04 06:18 |
|---|---|
| Airport | Owensboro Daviess County Airport (KOWB) |
Arrival
| Time | 2026-05-04 06:26 |
|---|---|
| Airport | Owensboro Daviess County Airport (KOWB) |
| Time | Latitude | Longitude | Altitude | Speed | Heading |
|---|---|---|---|---|---|
| 2026-05-04 05:52 | 37.73731 | -87.16419 | 405 ft | 0 kts | 265° |
| 2026-05-04 06:13 | 37.73736 | -87.16433 | 405 ft | 7 kts | 324° |
| 2026-05-04 06:14 | 37.74194 | -87.16563 | 405 ft | 22 kts | 358° |
| 2026-05-04 06:14 | 37.74329 | -87.16515 | 405 ft | 20 kts | 25° |
| 2026-05-04 06:15 | 37.74453 | -87.16504 | 406 ft | 16 kts | 359° |
| 2026-05-04 06:15 | 37.74553 | -87.16510 | 407 ft | 12 kts | 358° |
| 2026-05-04 06:15 | 37.74638 | -87.16514 | 407 ft | 12 kts | 358° |
| 2026-05-04 06:15 | 37.74734 | -87.16518 | 408 ft | 15 kts | 358° |
| 2026-05-04 06:16 | 37.74834 | -87.16523 | 408 ft | 13 kts | 358° |
| 2026-05-04 06:16 | 37.74886 | -87.16571 | 409 ft | 9 kts | 275° |
| 2026-05-04 06:16 | 37.74884 | -87.16647 | 409 ft | 8 kts | 267° |
| 2026-05-04 06:16 | 37.74883 | -87.16667 | 409 ft | 0 kts | 266° |
| 2026-05-04 06:17 | 37.74860 | -87.16771 | 409 ft | 15 kts | 202° |
| 2026-05-04 06:17 | 37.74690 | -87.16769 | 408 ft | 54 kts | 178° |
| 2026-05-04 06:17 | 37.74102 | -87.16741 | 530 ft | 104 kts | 178° |
| 2026-05-04 06:17 | 37.73347 | -87.16716 | 849 ft | 111 kts | 180° |
| 2026-05-04 06:18 | 37.72602 | -87.16693 | 1325 ft | 102 kts | 174° |
| 2026-05-04 06:18 | 37.72174 | -87.15952 | 1685 ft | 116 kts | 114° |
| 2026-05-04 06:18 | 37.72293 | -87.14882 | 1720 ft | 139 kts | 55° |
| 2026-05-04 06:20 | 37.77004 | -87.16196 | 1341 ft | 88 kts | 264° |
| 2026-05-04 06:20 | 37.76696 | -87.16809 | 948 ft | 99 kts | 198° |
| 2026-05-04 06:21 | 37.74196 | -87.16744 | 408 ft | 55 kts | 178° |
| 2026-05-04 06:21 | 37.73586 | -87.16714 | 534 ft | 114 kts | 178° |
| 2026-05-04 06:22 | 37.72677 | -87.16683 | 993 ft | 143 kts | 179° |
| 2026-05-04 06:22 | 37.71658 | -87.16493 | 1820 ft | 150 kts | 161° |
| 2026-05-04 06:25 | 37.75071 | -87.16783 | 487 ft | 85 kts | 176° |
| 2026-05-04 06:25 | 37.74519 | -87.16757 | 413 ft | 73 kts | 178° |
| 2026-05-04 06:26 | 37.74102 | -87.16740 | 407 ft | 26 kts | 181° |
| 2026-05-04 06:26 | 37.73905 | -87.16729 | 405 ft | 31 kts | 177° |
| 2026-05-04 06:26 | 37.73771 | -87.16690 | 405 ft | 14 kts | 115° |
| 2026-05-04 06:26 | 37.73794 | -87.16615 | 405 ft | 0 kts | 58° |
| 2026-05-04 06:27 | 37.73782 | -87.16503 | 405 ft | 8 kts | 96° |
| 2026-05-04 06:28 | 37.73784 | -87.16457 | 405 ft | 4 kts | 80° |
| 2026-05-04 06:28 | 37.73791 | -87.16410 | 405 ft | 6 kts | 80° |
| 2026-05-04 06:28 | 37.73818 | -87.16385 | 405 ft | 5 kts | 352° |
| 2026-05-04 06:28 | 37.73839 | -87.16400 | 405 ft | 3 kts | 282° |
| 2026-05-04 06:29 | 37.73839 | -87.16415 | 405 ft | 1 kts | 268° |
| 2026-05-04 06:29 | 37.73840 | -87.16426 | 405 ft | 0 kts | 277° |